»·PEaware :: N724KR KSNA-KOXR

N724KR :: KSNA-KOXR

FLIGHT INFORMATION

Flight Status: Arrived
Operator: Privately registered:
United States
More flights under this callsign
Pilot: Lee R. (22371)
Aircraft: CESSNA 172 SKYHAWK
(C172)
More flights by this aircraft type
Origin: KSNA John Wayne-Orange Co
United States
Destination: KOXR Oxnard
United States
More flights between these airports :: More routes between these airports
Route: SLI V23 POPPR SMO125 SMO VNY
File this flight plan on PilotEdge
Remarks: TEC Route CSTP24 , I-4
Altitude:
(Current/Filed)
4,000ft
Speed:
(Current/Filed)
110kts
Departed: 21-Jan-21 02:53 PM
Arrived: 21-Jan-21 03:41 PM
Distance/Time
Traveled:
73nm/0:48
Distance/Time
To Go:
Arrived

Flight Plot

Page will automatically refresh every two minutes.


Map Options




Map Legend


Flown Route
Filed Route
Departure Airport
Arrival Airport
Navaid (VOR, NDB)
Fix

Horizontal Profiles

Position Reports

Time Latitude Longitude Heading Altitude Ground
Speed
21-Jan-21 14:01 33.675142 -117.871586 34 60ft 0kts
21-Jan-21 14:02 33.675142 -117.871586 34 60ft 0kts
21-Jan-21 14:03 33.675142 -117.871586 34 60ft 0kts
21-Jan-21 14:04 33.675142 -117.871586 34 60ft 0kts
21-Jan-21 14:05 33.675142 -117.871586 34 60ft 0kts
21-Jan-21 14:06 33.675142 -117.871586 34 60ft 0kts
21-Jan-21 14:07 33.675142 -117.871586 34 60ft 0kts
21-Jan-21 14:08 33.675142 -117.871586 34 60ft 0kts
21-Jan-21 14:09 33.675142 -117.871586 34 60ft 0kts
21-Jan-21 14:10 33.675142 -117.871586 34 60ft 0kts
21-Jan-21 14:11 33.675142 -117.871586 34 60ft 0kts
21-Jan-21 14:12 33.675142 -117.871586 34 60ft 0kts
21-Jan-21 14:13 33.675142 -117.871586 34 60ft 0kts
21-Jan-21 14:14 33.675142 -117.871586 34 60ft 0kts
21-Jan-21 14:15 33.675142 -117.871586 34 60ft 0kts
21-Jan-21 14:16 33.675142 -117.871586 34 60ft 0kts
21-Jan-21 14:17 33.675142 -117.871586 34 60ft 0kts
21-Jan-21 14:18 33.675142 -117.871586 34 60ft 0kts
21-Jan-21 14:19 33.675142 -117.871586 34 60ft 0kts
21-Jan-21 14:20 33.675142 -117.871586 34 60ft 0kts
21-Jan-21 14:21 33.675142 -117.871586 34 60ft 0kts
21-Jan-21 14:22 33.675142 -117.871586 34 60ft 0kts
21-Jan-21 14:24 33.675142 -117.871586 34 60ft 0kts
21-Jan-21 14:25 33.675142 -117.871586 34 60ft 0kts
21-Jan-21 14:26 33.675142 -117.871586 34 60ft 0kts
21-Jan-21 14:27 33.675142 -117.871586 34 60ft 0kts
21-Jan-21 14:28 33.675142 -117.871586 34 60ft 0kts
21-Jan-21 14:29 33.675142 -117.871586 34 60ft 0kts
21-Jan-21 14:30 33.675142 -117.871586 34 60ft 0kts
21-Jan-21 14:31 33.675142 -117.871586 34 60ft 0kts
21-Jan-21 14:32 33.675142 -117.871586 34 60ft 0kts
21-Jan-21 14:33 33.675142 -117.871586 34 60ft 0kts
21-Jan-21 14:34 33.675142 -117.871586 34 60ft 0kts
21-Jan-21 14:35 33.675142 -117.871586 34 60ft 0kts
21-Jan-21 14:36 33.675142 -117.871586 34 60ft 0kts
21-Jan-21 14:37 33.675142 -117.871586 34 60ft 0kts
21-Jan-21 14:38 33.675142 -117.871586 34 60ft 0kts
21-Jan-21 14:39 33.675142 -117.871586 34 60ft 0kts
21-Jan-21 14:40 33.675142 -117.871586 34 60ft 0kts
21-Jan-21 14:41 33.675142 -117.871586 34 60ft 0kts
21-Jan-21 14:41 33.675142 -117.871586 34 60ft 0kts
21-Jan-21 14:42 33.675142 -117.871586 34 60ft 0kts
21-Jan-21 14:44 33.675142 -117.871586 34 60ft 0kts
21-Jan-21 14:44 33.675142 -117.871586 34 60ft 0kts
21-Jan-21 14:45 33.675142 -117.871586 34 60ft 0kts
21-Jan-21 14:46 33.675142 -117.871586 34 60ft 0kts
21-Jan-21 14:47 33.675226 -117.870967 96 60ft 6kts
21-Jan-21 14:48 33.675414 -117.870518 31 60ft 9kts
21-Jan-21 14:49 33.679712 -117.867940 21 60ft 15kts
21-Jan-21 14:50 33.681178 -117.866621 97 60ft 0kts
21-Jan-21 14:51 33.681178 -117.866622 99 60ft 0kts
21-Jan-21 14:52 33.678341 -117.867164 208 60ft 59kts
21-Jan-21 14:53 33.659646 -117.884333 230 778ft 91kts
21-Jan-21 14:54 33.644008 -117.908253 231 1671ft 91kts
21-Jan-21 14:55 33.635350 -117.934669 280 2513ft 90kts
21-Jan-21 14:56 33.640444 -117.963871 281 3316ft 89kts
21-Jan-21 14:57 33.645640 -117.993456 281 3920ft 104kts
21-Jan-21 14:58 33.651992 -118.029172 282 3917ft 112kts
21-Jan-21 14:59 33.673057 -118.056435 314 3917ft 113kts
21-Jan-21 15:00 33.694595 -118.084072 311 3922ft 113kts
21-Jan-21 15:01 33.715394 -118.112273 311 3926ft 113kts
21-Jan-21 15:02 33.736125 -118.140815 310 3926ft 113kts
21-Jan-21 15:03 33.756828 -118.169469 310 3926ft 113kts
21-Jan-21 15:04 33.777393 -118.197987 310 3926ft 113kts
21-Jan-21 15:05 33.798024 -118.226626 310 3926ft 113kts
21-Jan-21 15:06 33.818643 -118.255278 310 3926ft 113kts
21-Jan-21 15:07 33.839072 -118.283669 311 3926ft 113kts
21-Jan-21 15:08 33.862762 -118.308561 319 3926ft 113kts
21-Jan-21 15:09 33.886975 -118.333011 319 3926ft 113kts
21-Jan-21 15:10 33.911094 -118.357269 320 3926ft 113kts
21-Jan-21 15:11 33.935279 -118.381582 320 3926ft 113kts
21-Jan-21 15:12 33.959491 -118.405925 320 3926ft 113kts
21-Jan-21 15:13 33.983645 -118.430244 320 3926ft 113kts
21-Jan-21 15:14 34.008390 -118.453721 341 3923ft 113kts
21-Jan-21 15:15 34.039243 -118.461038 350 3926ft 113kts
21-Jan-21 15:16 34.070466 -118.466639 351 3926ft 113kts
21-Jan-21 15:17 34.101712 -118.471888 352 3926ft 113kts
21-Jan-21 15:18 34.132925 -118.477038 352 3926ft 113kts
21-Jan-21 15:19 34.163919 -118.482128 352 3926ft 113kts
21-Jan-21 15:20 34.176556 -118.509563 265 3927ft 113kts
21-Jan-21 15:21 34.175817 -118.547655 270 3926ft 113kts
21-Jan-21 15:22 34.176762 -118.585868 272 3926ft 113kts
21-Jan-21 15:23 34.178170 -118.623952 272 3935ft 113kts
21-Jan-21 15:24 34.179738 -118.661861 272 3935ft 113kts
21-Jan-21 15:25 34.181287 -118.700012 272 3935ft 113kts
21-Jan-21 15:26 34.182818 -118.738094 272 3935ft 113kts
21-Jan-21 15:27 34.184344 -118.776349 272 3935ft 113kts
21-Jan-21 15:28 34.185852 -118.814470 272 3935ft 113kts
21-Jan-21 15:29 34.187351 -118.852628 272 3935ft 113kts
21-Jan-21 15:30 34.188835 -118.890733 272 3935ft 113kts
21-Jan-21 15:31 34.190306 -118.928796 272 3935ft 113kts
21-Jan-21 15:32 34.191770 -118.966999 272 3935ft 113kts
21-Jan-21 15:33 34.193224 -119.005220 272 3935ft 113kts
21-Jan-21 15:34 34.194614 -119.041778 272 3793ft 102kts
21-Jan-21 15:35 34.195910 -119.076167 272 3254ft 101kts
21-Jan-21 15:36 34.197155 -119.109391 272 2569ft 96kts
21-Jan-21 15:37 34.198309 -119.140532 272 1661ft 91kts
21-Jan-21 15:38 34.200089 -119.168121 273 641ft 73kts
21-Jan-21 15:39 34.200661 -119.191942 269 187ft 71kts
21-Jan-21 15:40 34.200350 -119.203161 184 45ft 0kts
21-Jan-21 15:41 34.199549 -119.202382 127 45ft 12kts
21-Jan-21 15:42 34.199103 -119.202078 175 45ft 0kts
21-Jan-21 15:43 34.199103 -119.202078 175 45ft 0kts
21-Jan-21 15:44 34.199103 -119.202078 175 45ft 0kts
21-Jan-21 15:45 34.199103 -119.202078 175 45ft 0kts
21-Jan-21 15:46 34.199103 -119.202078 175 45ft 0kts
21-Jan-21 15:47 34.199103 -119.202078 175 45ft 0kts
21-Jan-21 15:48 34.199103 -119.202078 175 45ft 0kts

Navigation Log

Ident Type
Flight plan parsing failed, navigation log unavailable